Time;durP1;ratioP1;P1;durP2;ratioP2;P2;SDS_P1;SDS_P2;PMS_P1;PMS_P2;Temp;Humidity;BMP_temperature;BMP_pressure;BME280_temperature;BME280_humidity;BME280_pressure;Samples;Min_cycle;Max_cycle;Signal;HPM_P1;HPM_P2
2022/08/15 00:01:36;;;;;;;7.53;3.50;;;;;;;23.23;50.10;97764.97;4907877;29;20795;-63
2022/08/15 00:04:06;;;;;;;4.83;3.37;;;;;;;23.25;50.64;97762.84;4906730;29;20251;-64
2022/08/15 00:06:37;;;;;;;6.27;3.33;;;;;;;23.19;50.99;97763.84;4904936;29;21147;-64
2022/08/15 00:09:09;;;;;;;5.23;3.23;;;;;;;23.14;51.34;97764.59;4908642;29;20228;-64
2022/08/15 00:11:39;;;;;;;7.73;3.83;;;;;;;23.13;51.84;97757.66;4902206;29;20587;-64
2022/08/15 00:14:09;;;;;;;6.33;3.07;;;;;;;23.08;51.91;97762.94;4899961;29;20234;-64
2022/08/15 00:16:40;;;;;;;9.97;3.40;;;;;;;23.00;52.36;97758.91;4909529;29;20240;-64
2022/08/15 00:19:12;;;;;;;6.53;3.93;;;;;;;22.95;52.70;97764.97;4910802;29;20712;-64
2022/08/15 00:21:43;;;;;;;6.97;3.47;;;;;;;22.92;53.12;97762.81;4907710;29;20241;-64
2022/08/15 00:24:13;;;;;;;8.33;3.37;;;;;;;22.83;53.50;97774.97;4906772;29;20253;-64
2022/08/15 00:26:40;;;;;;;6.30;3.13;;;;;;;22.81;53.85;97771.75;4908023;29;20307;-63
2022/08/15 00:29:07;;;;;;;5.27;3.40;;;;;;;22.78;54.08;97769.63;4907603;29;20321;-63
2022/08/15 00:31:35;;;;;;;4.43;2.90;;;;;;;22.74;54.91;97766.63;4921983;28;20586;-63
2022/08/15 00:34:03;;;;;;;7.37;3.50;;;;;;;22.68;54.93;97757.00;4907131;29;20235;-63
2022/08/15 00:36:30;;;;;;;5.27;3.33;;;;;;;22.67;54.54;97752.75;4906446;29;20234;-64
2022/08/15 00:38:58;;;;;;;4.83;2.90;;;;;;;22.62;54.98;97753.50;4924172;29;20236;-64
2022/08/15 00:41:42;;;;;;;7.67;3.00;;;;;;;22.56;55.18;97757.16;4912948;29;20315;-63
2022/08/15 00:44:14;;;;;;;5.20;3.10;;;;;;;22.50;55.42;97761.63;4923673;29;20230;-63
2022/08/15 00:46:43;;;;;;;5.30;3.27;;;;;;;22.46;55.67;97752.53;4921355;29;21133;-63
2022/08/15 00:49:10;;;;;;;4.63;3.13;;;;;;;22.43;55.86;97753.00;4902929;29;20322;-63
2022/08/15 00:51:40;;;;;;;4.67;2.80;;;;;;;22.39;55.94;97758.03;4913221;29;20235;-63
2022/08/15 00:54:10;;;;;;;4.00;3.00;;;;;;;22.37;56.47;97754.81;4906825;29;20566;-64
2022/08/15 00:56:42;;;;;;;5.13;2.90;;;;;;;22.27;57.09;97755.47;4907326;29;20246;-64
2022/08/15 00:59:13;;;;;;;6.50;2.80;;;;;;;22.16;57.11;97752.97;4921087;29;20321;-63
2022/08/15 01:01:40;;;;;;;6.03;3.30;;;;;;;22.10;57.53;97757.44;4906500;29;20238;-63
2022/08/15 01:04:08;;;;;;;5.43;3.17;;;;;;;22.10;57.41;97747.59;4905408;29;20235;-63
2022/08/15 01:06:37;;;;;;;4.40;3.30;;;;;;;22.08;57.96;97760.31;4922296;29;20330;-64
2022/08/15 01:09:07;;;;;;;7.07;3.63;;;;;;;22.06;58.02;97764.28;4921045;29;20247;-63
2022/08/15 01:11:38;;;;;;;4.57;2.87;;;;;;;22.01;58.25;97758.91;4921786;29;20230;-63
2022/08/15 01:14:07;;;;;;;6.40;2.90;;;;;;;22.02;58.45;97757.84;4907088;29;20250;-63
2022/08/15 01:16:38;;;;;;;8.33;3.60;;;;;;;21.92;58.87;97761.16;4922034;29;20236;-63
2022/08/15 01:19:12;;;;;;;4.87;2.67;;;;;;;21.91;59.28;97765.69;4905770;29;20320;-63
2022/08/15 01:21:48;;;;;;;7.83;3.20;;;;;;;21.85;59.50;97763.22;4906111;29;20231;-63
2022/08/15 01:24:29;;;;;;;5.90;3.20;;;;;;;21.86;59.18;97754.19;4923555;29;20576;-63
2022/08/15 01:26:57;;;;;;;7.47;2.80;;;;;;;21.83;59.51;97756.28;4928432;29;20722;-63
2022/08/15 01:29:26;;;;;;;5.90;2.43;;;;;;;21.81;60.48;97755.72;4923314;29;20241;-63
2022/08/15 01:31:53;;;;;;;7.47;3.20;;;;;;;21.81;61.00;97760.25;4924109;28;20249;-64
2022/08/15 01:34:20;;;;;;;5.50;2.90;;;;;;;21.81;62.59;97766.34;4925932;29;20231;-63
2022/08/15 01:36:49;;;;;;;9.43;3.40;;;;;;;21.73;63.67;97777.41;4924810;29;20250;-64
2022/08/15 01:39:21;;;;;;;4.57;2.80;;;;;;;21.60;67.87;97775.06;4908936;29;20230;-64
2022/08/15 01:41:57;;;;;;;8.37;3.53;;;;;;;21.37;69.75;97785.63;4925101;29;20248;-64
2022/08/15 01:44:30;;;;;;;12.93;4.00;;;;;;;21.17;73.29;97783.44;4923032;29;20235;-64
2022/08/15 01:47:02;;;;;;;7.57;3.53;;;;;;;21.05;74.66;97783.53;4909257;29;20349;-64
2022/08/15 01:49:33;;;;;;;7.80;3.60;;;;;;;20.90;76.42;97785.91;4908680;29;20317;-64
2022/08/15 01:52:02;;;;;;;6.63;3.30;;;;;;;20.76;77.34;97780.88;4922864;29;20349;-64
2022/08/15 01:54:33;;;;;;;7.83;3.70;;;;;;;20.63;80.58;97774.03;4911981;29;20238;-64
2022/08/15 01:57:05;;;;;;;7.60;3.47;;;;;;;20.45;83.09;97782.97;4924206;29;20234;-64
2022/08/15 01:59:32;;;;;;;7.23;3.70;;;;;;;20.30;84.67;97783.47;4907813;29;20231;-64
2022/08/15 02:02:02;;;;;;;7.67;3.27;;;;;;;20.23;85.36;97784.63;4903873;29;20261;-64
2022/08/15 02:04:31;;;;;;;7.50;3.43;;;;;;;20.09;84.04;97787.56;4908774;29;20390;-63
2022/08/15 02:07:01;;;;;;;5.80;3.47;;;;;;;20.01;85.17;97786.06;4908462;29;20280;-63
2022/08/15 02:09:30;;;;;;;6.40;3.57;;;;;;;19.94;85.07;97779.28;4908411;29;20294;-63
2022/08/15 02:12:00;;;;;;;9.37;4.00;;;;;;;19.90;86.78;97785.06;4909163;29;20577;-63
2022/08/15 02:14:31;;;;;;;5.93;3.10;;;;;;;19.87;83.78;97774.91;4924724;29;21713;-63
2022/08/15 02:17:00;;;;;;;9.73;3.50;;;;;;;19.95;82.17;97775.59;4925155;29;20754;-63
2022/08/15 02:19:28;;;;;;;8.63;5.00;;;;;;;19.83;83.39;97772.94;4908999;29;20230;-63
2022/08/15 02:21:55;;;;;;;5.80;3.10;;;;;;;19.80;81.22;97766.25;4907760;29;20324;-63
2022/08/15 02:24:24;;;;;;;5.20;3.00;;;;;;;19.86;84.23;97773.28;4907582;29;20281;-63
2022/08/15 02:26:54;;;;;;;5.20;2.73;;;;;;;19.85;83.00;97755.78;4909831;29;20224;-63
2022/08/15 02:29:25;;;;;;;5.10;3.03;;;;;;;19.78;83.21;97773.63;4907589;29;20291;-63
2022/08/15 02:31:54;;;;;;;5.07;3.13;;;;;;;19.70;81.18;97768.69;4924507;29;20606;-63
2022/08/15 02:34:22;;;;;;;7.23;3.40;;;;;;;19.68;83.99;97771.56;4907028;29;20239;-63
2022/08/15 02:36:49;;;;;;;8.03;3.20;;;;;;;19.59;84.53;97779.06;4922022;29;20562;-63
2022/08/15 02:39:16;;;;;;;4.57;3.73;;;;;;;19.57;83.78;97764.44;4922975;29;20337;-63
2022/08/15 02:41:50;;;;;;;3.93;3.13;;;;;;;19.53;84.55;97758.78;4911663;29;20241;-63
2022/08/15 02:44:20;;;;;;;5.93;3.30;;;;;;;19.50;83.67;97761.09;4907919;29;20240;-63
2022/08/15 02:46:49;;;;;;;5.50;3.30;;;;;;;19.38;85.86;97761.91;4907743;29;20233;-63
2022/08/15 02:49:18;;;;;;;6.27;3.10;;;;;;;19.36;86.98;97761.34;4924716;29;20294;-63
2022/08/15 02:51:48;;;;;;;4.40;2.70;;;;;;;19.25;87.24;97751.53;4907897;29;20232;-63
2022/08/15 02:54:21;;;;;;;6.20;3.20;;;;;;;19.27;89.09;97750.25;4906826;29;20241;-63
2022/08/15 02:56:48;;;;;;;3.90;2.70;;;;;;;19.22;88.41;97757.28;4924145;29;20238;-63
2022/08/15 02:59:18;;;;;;;3.67;2.43;;;;;;;19.17;85.76;97755.31;4921106;29;20244;-63
2022/08/15 03:01:44;;;;;;;3.60;2.30;;;;;;;19.14;85.84;97759.22;4925141;29;20241;-63
2022/08/15 03:04:17;;;;;;;5.33;2.90;;;;;;;19.13;87.29;97757.63;4922637;29;20234;-63
2022/08/15 03:06:46;;;;;;;5.40;3.00;;;;;;;19.13;88.20;97760.25;4924401;29;20222;-63
2022/08/15 03:09:15;;;;;;;3.77;2.60;;;;;;;19.11;88.05;97759.69;4922665;29;20314;-63
2022/08/15 03:11:57;;;;;;;6.87;3.40;;;;;;;19.13;89.32;97752.31;4923719;29;20231;-63
2022/08/15 03:14:28;;;;;;;3.80;3.50;;;;;;;19.02;90.22;97753.09;4924341;28;20751;-63
2022/08/15 03:16:57;;;;;;;7.07;3.20;;;;;;;18.97;91.00;97753.81;4924012;29;20319;-63
2022/08/15 03:19:25;;;;;;;3.40;3.10;;;;;;;18.86;92.36;97743.97;4907379;29;20226;-63
2022/08/15 03:21:56;;;;;;;5.13;3.07;;;;;;;18.77;92.63;97751.41;4923287;29;20238;-63
2022/08/15 03:24:24;;;;;;;4.57;3.00;;;;;;;18.68;93.77;97743.00;4923443;29;20238;-63
2022/08/15 03:26:52;;;;;;;4.87;3.20;;;;;;;18.69;93.91;97749.09;4925112;29;20220;-63
2022/08/15 03:29:20;;;;;;;4.77;2.83;;;;;;;18.65;94.21;97754.03;4922579;29;20694;-63
2022/08/15 03:31:52;;;;;;;5.97;3.77;;;;;;;18.59;95.17;97750.44;4924092;28;20614;-63
2022/08/15 03:34:24;;;;;;;5.17;3.00;;;;;;;18.56;96.15;97748.22;4924423;29;20262;-63
2022/08/15 03:36:52;;;;;;;5.20;2.90;;;;;;;18.63;95.62;97742.03;4920568;29;20226;-63
2022/08/15 03:39:21;;;;;;;6.43;3.40;;;;;;;18.53;95.89;97750.53;4924453;29;20233;-63
2022/08/15 03:41:48;;;;;;;7.93;3.83;;;;;;;18.53;96.50;97750.53;4907235;29;20235;-63
2022/08/15 03:44:15;;;;;;;4.80;3.80;;;;;;;18.58;97.72;97766.53;4921922;29;20241;-63
2022/08/15 03:46:43;;;;;;;5.83;3.80;;;;;;;18.66;98.44;97765.38;4906165;29;20280;-63
2022/08/15 03:49:13;;;;;;;5.60;3.70;;;;;;;18.69;98.96;97764.94;4921612;29;20647;-63
2022/08/15 03:51:41;;;;;;;4.53;3.80;;;;;;;18.75;95.59;97766.69;4922592;29;20260;-63
2022/08/15 03:54:12;;;;;;;5.73;4.00;;;;;;;18.79;92.93;97769.69;4906183;29;20455;-63
2022/08/15 03:56:40;;;;;;;4.47;3.50;;;;;;;18.73;94.59;97764.28;4913666;29;20261;-63
2022/08/15 03:59:11;;;;;;;4.13;3.20;;;;;;;18.70;93.42;97754.16;4922774;29;20223;-63
2022/08/15 04:01:39;;;;;;;5.43;2.90;;;;;;;18.67;92.79;97751.97;4905638;29;20317;-63
2022/08/15 04:04:06;;;;;;;3.43;2.70;;;;;;;18.71;92.62;97755.78;4923172;29;20222;-63
2022/08/15 04:06:40;;;;;;;4.50;2.57;;;;;;;18.76;90.07;97765.66;4908770;29;20317;-63
2022/08/15 04:09:08;;;;;;;4.37;2.53;;;;;;;18.90;85.61;97768.94;4920982;29;20254;-63
2022/08/15 04:11:36;;;;;;;2.97;2.30;;;;;;;18.97;85.29;97772.31;4912402;29;20714;-63
2022/08/15 04:14:08;;;;;;;4.13;2.40;;;;;;;19.07;84.77;97766.47;4902973;29;20246;-63
2022/08/15 04:16:35;;;;;;;2.63;2.00;;;;;;;19.11;82.98;97775.56;4889870;29;20246;-63
2022/08/15 04:19:04;;;;;;;2.37;2.07;;;;;;;19.15;81.88;97765.31;4890152;29;20226;-63
2022/08/15 04:21:32;;;;;;;3.80;2.43;;;;;;;19.17;83.04;97771.19;4901161;29;20711;-63
2022/08/15 04:23:59;;;;;;;3.30;1.73;;;;;;;19.16;81.15;97766.91;4901275;29;20755;-63
2022/08/15 04:26:26;;;;;;;3.97;2.00;;;;;;;19.18;80.55;97757.75;4922874;29;20589;-63
2022/08/15 04:28:53;;;;;;;3.97;2.93;;;;;;;19.31;80.34;97750.63;4924464;29;20245;-63
2022/08/15 04:31:23;;;;;;;4.17;1.70;;;;;;;19.26;79.73;97751.28;4920451;29;20319;-63
2022/08/15 04:33:51;;;;;;;7.60;2.20;;;;;;;19.27;80.11;97757.41;4906079;29;20230;-63
2022/08/15 04:36:21;;;;;;;3.53;1.90;;;;;;;19.18;79.10;97747.16;4914706;29;20236;-63
2022/08/15 04:38:53;;;;;;;3.90;1.93;;;;;;;19.10;80.17;97744.84;4903776;29;20284;-63
2022/08/15 04:41:20;;;;;;;3.17;1.80;;;;;;;19.09;80.75;97735.31;4904946;29;20233;-63
2022/08/15 04:43:47;;;;;;;3.10;1.90;;;;;;;19.03;80.26;97730.91;4912315;29;20241;-63
2022/08/15 04:46:19;;;;;;;3.20;1.80;;;;;;;18.89;82.25;97722.38;4922502;29;20294;-63
2022/08/15 04:48:48;;;;;;;2.93;1.93;;;;;;;18.84;82.43;97722.25;4908303;29;20229;-63
2022/08/15 04:51:15;;;;;;;3.07;1.73;;;;;;;18.77;82.11;97714.41;4905910;29;20266;-63
2022/08/15 04:53:44;;;;;;;1.63;1.50;;;;;;;18.74;82.30;97704.28;4905488;29;20694;-63
2022/08/15 04:56:13;;;;;;;2.37;1.90;;;;;;;18.74;83.21;97697.16;4920913;28;20741;-63
2022/08/15 04:58:40;;;;;;;4.00;1.60;;;;;;;18.73;82.78;97714.06;4913461;29;20228;-63
2022/08/15 05:01:13;;;;;;;2.03;1.80;;;;;;;18.70;84.58;97717.16;4907701;29;20221;-63
2022/08/15 05:03:48;;;;;;;3.33;1.77;;;;;;;18.68;85.38;97715.75;4925812;29;20262;-63
2022/08/15 05:06:14;;;;;;;4.53;1.87;;;;;;;18.67;85.34;97714.97;4925979;29;21795;-63
2022/08/15 05:08:42;;;;;;;5.87;2.00;;;;;;;18.66;85.28;97723.09;4927491;29;20609;-63
2022/08/15 05:11:19;;;;;;;4.70;1.90;;;;;;;18.66;85.07;97726.56;4926213;29;20226;-63
2022/08/15 05:13:56;;;;;;;2.27;1.63;;;;;;;18.68;84.77;97727.16;4925749;29;20226;-63
2022/08/15 05:16:33;;;;;;;2.40;1.57;;;;;;;18.76;84.88;97728.66;4925494;29;20584;-63
2022/08/15 05:19:04;;;;;;;3.50;1.50;;;;;;;18.80;85.00;97721.09;4911493;29;20226;-63
2022/08/15 05:21:34;;;;;;;3.60;1.67;;;;;;;18.89;84.67;97727.66;4924854;28;20228;-63
2022/08/15 05:24:01;;;;;;;2.03;1.50;;;;;;;18.99;84.36;97738.53;4927360;29;20226;-63
2022/08/15 05:26:30;;;;;;;3.07;1.60;;;;;;;19.06;82.99;97732.31;4925958;29;21556;-63
2022/08/15 05:28:57;;;;;;;1.93;1.60;;;;;;;19.17;81.45;97745.56;4908889;29;20272;-63
2022/08/15 05:31:26;;;;;;;2.83;1.50;;;;;;;19.29;76.12;97742.91;4908002;29;20826;-63
2022/08/15 05:33:56;;;;;;;2.30;1.37;;;;;;;19.41;76.50;97742.09;4909504;29;20236;-63
2022/08/15 05:36:25;;;;;;;2.43;1.30;;;;;;;19.51;76.04;97742.34;4924562;29;20285;-63
2022/08/15 05:38:58;;;;;;;2.70;1.40;;;;;;;19.60;76.24;97742.81;4923824;29;20218;-63
2022/08/15 05:41:37;;;;;;;1.43;1.20;;;;;;;19.67;75.18;97748.75;4927487;29;20801;-63
2022/08/15 05:44:12;;;;;;;2.40;1.60;;;;;;;19.81;75.50;97754.63;4926328;29;20241;-63
2022/08/15 05:46:46;;;;;;;1.97;1.73;;;;;;;19.93;75.29;97759.94;4924945;29;20234;-63
2022/08/15 05:49:28;;;;;;;2.17;1.50;;;;;;;20.06;72.97;97761.53;4909949;29;20234;-63
2022/08/15 05:52:08;;;;;;;2.67;1.40;;;;;;;19.91;74.18;97765.47;4908612;29;20231;-63
2022/08/15 05:54:53;;;;;;;4.70;1.93;;;;;;;19.85;76.26;97774.31;4922825;29;20228;-63
2022/08/15 05:57:26;;;;;;;1.77;1.53;;;;;;;19.79;74.42;97775.25;4907977;29;20727;-63
2022/08/15 05:59:58;;;;;;;3.07;1.90;;;;;;;19.81;74.61;97782.94;4909355;29;20229;-63
2022/08/15 06:02:33;;;;;;;3.83;1.97;;;;;;;19.77;73.93;97783.41;4900270;29;20252;-63
2022/08/15 06:05:04;;;;;;;3.07;2.03;;;;;;;19.75;74.74;97787.34;4924309;29;20226;-63
2022/08/15 06:07:33;;;;;;;2.47;1.90;;;;;;;19.72;74.26;97793.09;4909736;29;20272;-63
2022/08/15 06:10:05;;;;;;;2.90;1.90;;;;;;;19.70;74.19;97789.88;4923777;29;20695;-63
2022/08/15 06:12:41;;;;;;;3.97;2.00;;;;;;;19.71;74.25;97800.22;4923139;29;20319;-63
2022/08/15 06:15:17;;;;;;;4.07;2.00;;;;;;;19.80;74.21;97794.56;4922864;29;20271;-63
2022/08/15 06:17:55;;;;;;;3.80;1.87;;;;;;;19.77;73.89;97799.28;4924695;29;20234;-63
2022/08/15 06:20:37;;;;;;;3.13;2.00;;;;;;;19.84;73.19;97801.03;4907827;29;20254;-63
2022/08/15 06:23:22;;;;;;;3.23;2.10;;;;;;;19.95;71.18;97784.34;4923453;29;20220;-63
2022/08/15 06:26:06;;;;;;;4.43;1.90;;;;;;;20.06;72.10;97780.88;4923094;29;20224;-63
2022/08/15 06:28:48;;;;;;;5.03;2.00;;;;;;;20.21;71.74;97785.66;4907885;29;20237;-63
2022/08/15 06:31:21;;;;;;;2.33;2.10;;;;;;;20.37;71.52;97790.50;4921562;29;20730;-63
2022/08/15 06:33:56;;;;;;;4.43;2.00;;;;;;;20.38;70.16;97790.25;4924403;29;20233;-63
2022/08/15 06:36:28;;;;;;;2.87;1.90;;;;;;;20.34;70.62;97783.78;4922740;29;20261;-63
2022/08/15 06:39:04;;;;;;;2.60;1.90;;;;;;;20.35;70.75;97785.41;4907223;29;20232;-63
2022/08/15 06:41:41;;;;;;;3.70;1.97;;;;;;;20.33;69.71;97784.84;4921095;29;20602;-63
2022/08/15 06:44:16;;;;;;;2.77;1.90;;;;;;;20.31;69.73;97793.03;4923163;29;20339;-63
2022/08/15 06:47:03;;;;;;;2.83;1.80;;;;;;;20.24;69.28;97787.06;4923986;29;20235;-63
2022/08/15 06:49:33;;;;;;;3.08;2.10;;;;;;;20.19;69.37;97787.75;4922778;29;20497;-63
2022/08/15 06:52:01;;;;;;;2.87;2.10;;;;;;;20.17;69.17;97786.38;4907198;29;20233;-63
2022/08/15 06:54:30;;;;;;;4.57;2.00;;;;;;;20.30;68.41;97788.78;4906536;29;20239;-63
2022/08/15 06:57:02;;;;;;;2.47;2.00;;;;;;;20.46;66.55;97781.91;4922988;29;20229;-63
2022/08/15 06:59:37;;;;;;;3.90;1.70;;;;;;;20.69;65.92;97776.75;4922534;29;20280;-63
2022/08/15 07:02:21;;;;;;;3.67;1.97;;;;;;;20.79;64.44;97780.44;4900460;29;20328;-63
2022/08/15 07:05:04;;;;;;;1.87;1.53;;;;;;;20.88;63.94;97780.06;4904861;29;20601;-63
2022/08/15 07:07:40;;;;;;;3.20;1.83;;;;;;;21.01;62.39;97785.06;4903352;29;20237;-63
2022/08/15 07:10:16;;;;;;;2.27;1.80;;;;;;;20.96;62.26;97784.16;4891544;29;20248;-63
2022/08/15 07:12:56;;;;;;;1.43;1.33;;;;;;;21.17;61.58;97801.22;4921278;29;20283;-63
2022/08/15 07:15:35;;;;;;;2.23;1.53;;;;;;;21.23;61.76;97795.75;4921698;29;20232;-64
2022/08/15 07:18:07;;;;;;;2.30;1.60;;;;;;;21.27;61.40;97797.94;4922765;29;20242;-63
2022/08/15 07:20:36;;;;;;;3.10;1.50;;;;;;;21.39;60.70;97799.44;4905807;29;20282;-63
2022/08/15 07:23:19;;;;;;;2.37;1.60;;;;;;;21.50;60.24;97799.59;4906750;29;20697;-63
2022/08/15 07:25:50;;;;;;;2.53;1.70;;;;;;;21.45;59.97;97797.69;4904938;29;20234;-63
2022/08/15 07:28:21;;;;;;;2.00;1.40;;;;;;;21.51;60.74;97796.72;4922153;29;20319;-63
2022/08/15 07:30:53;;;;;;;2.33;1.47;;;;;;;21.53;60.78;97791.97;4909923;29;20261;-62
2022/08/15 07:33:40;;;;;;;2.63;1.73;;;;;;;21.53;60.01;97788.50;4904138;29;20232;-63
2022/08/15 07:36:20;;;;;;;3.80;1.70;;;;;;;21.54;59.97;97790.13;4922004;29;20229;-63
2022/08/15 07:38:48;;;;;;;1.80;1.60;;;;;;;21.64;59.96;97795.59;4919026;29;20228;-63
2022/08/15 07:41:24;;;;;;;3.77;1.80;;;;;;;21.73;59.82;97801.28;4919916;29;20317;-63
2022/08/15 07:43:57;;;;;;;2.33;1.70;;;;;;;21.76;59.71;97798.16;4920665;29;20231;-63
2022/08/15 07:46:37;;;;;;;4.00;1.40;;;;;;;21.77;60.28;97794.44;4921899;29;20234;-63
2022/08/15 07:49:15;;;;;;;2.23;1.40;;;;;;;21.59;59.16;97792.06;4922748;29;20290;-64
2022/08/15 07:51:47;;;;;;;3.20;1.70;;;;;;;21.47;58.39;97798.25;4919924;29;20258;-63
2022/08/15 07:54:28;;;;;;;3.83;1.63;;;;;;;21.47;59.24;97789.47;4916463;29;20251;-62
2022/08/15 07:57:00;;;;;;;1.33;1.20;;;;;;;21.61;59.23;97796.06;4904944;29;20226;-62
2022/08/15 07:59:33;;;;;;;1.93;1.50;;;;;;;21.71;57.61;97789.31;4920327;29;20530;-63
2022/08/15 08:02:23;;;;;;;1.53;1.40;;;;;;;21.95;56.78;97790.72;4925651;29;20346;-63
2022/08/15 08:04:50;;;;;;;2.13;1.23;;;;;;;21.90;57.36;97787.19;4909863;29;20239;-63
2022/08/15 08:07:21;;;;;;;2.00;1.80;;;;;;;22.08;57.24;97799.41;4923847;29;20237;-63
2022/08/15 08:09:54;;;;;;;3.20;1.50;;;;;;;22.22;56.46;97799.81;4906306;29;20227;-63
2022/08/15 08:12:30;;;;;;;2.23;1.60;;;;;;;22.21;55.43;97796.38;4921154;29;20240;-63
2022/08/15 08:15:12;;;;;;;2.07;1.40;;;;;;;22.43;55.71;97803.50;4906415;29;20281;-63
2022/08/15 08:17:45;;;;;;;1.93;1.60;;;;;;;22.50;54.74;97806.81;4922744;29;20796;-63
2022/08/15 08:20:22;;;;;;;3.00;1.70;;;;;;;22.42;55.07;97809.88;4905387;29;20752;-63
2022/08/15 08:22:56;;;;;;;1.97;1.60;;;;;;;22.50;54.26;97804.16;4906519;29;20230;-63
2022/08/15 08:25:28;;;;;;;2.47;1.60;;;;;;;22.48;54.35;97800.16;4905992;29;20243;-63
2022/08/15 08:28:10;;;;;;;3.17;1.70;;;;;;;22.40;55.23;97809.31;4921849;29;20240;-63
2022/08/15 08:30:47;;;;;;;2.23;1.53;;;;;;;22.50;53.42;97798.84;4904422;29;20238;-63
2022/08/15 08:33:26;;;;;;;2.33;1.53;;;;;;;22.48;53.29;97803.59;4906899;29;20233;-63
2022/08/15 08:35:58;;;;;;;3.33;1.77;;;;;;;22.44;53.75;97809.66;4906967;29;20884;-63
2022/08/15 08:38:36;;;;;;;1.70;1.50;;;;;;;22.40;54.82;97812.00;4907578;29;20232;-63
2022/08/15 08:41:29;;;;;;;4.20;2.10;;;;;;;22.52;54.36;97815.34;4906692;29;20325;-63
2022/08/15 08:44:09;;;;;;;2.90;1.87;;;;;;;22.43;54.69;97814.16;4906658;29;20240;-63
2022/08/15 08:46:55;;;;;;;2.30;1.70;;;;;;;22.32;55.04;97818.56;4905550;29;20229;-63
2022/08/15 08:49:31;;;;;;;2.17;1.93;;;;;;;22.10;56.00;97816.69;4906809;29;20328;-63
2022/08/15 08:52:05;;;;;;;2.53;1.80;;;;;;;22.37;55.21;97815.97;4918677;29;20302;-63
2022/08/15 08:54:40;;;;;;;2.53;1.90;;;;;;;22.44;54.70;97823.75;4906325;29;20229;-63
2022/08/15 08:57:12;;;;;;;6.03;2.20;;;;;;;22.60;54.85;97813.31;4909633;29;20231;-63
2022/08/15 08:59:48;;;;;;;2.63;1.80;;;;;;;22.74;54.72;97824.38;4904251;29;20233;-63
2022/08/15 09:02:19;;;;;;;3.93;2.00;;;;;;;22.89;53.05;97821.06;4907404;29;20250;-63
2022/08/15 09:04:51;;;;;;;3.77;1.63;;;;;;;23.10;53.13;97832.69;4906551;29;20233;-63
2022/08/15 09:07:22;;;;;;;2.47;1.90;;;;;;;23.41;52.02;97827.66;4905795;29;20242;-63
2022/08/15 09:09:53;;;;;;;2.63;1.87;;;;;;;23.80;51.70;97821.28;4907098;29;20711;-63
2022/08/15 09:15:19;;;;;;;2.20;1.60;;;;;;;23.86;49.89;97821.03;4907236;29;20227;-63
2022/08/15 09:17:50;;;;;;;4.23;2.00;;;;;;;23.88;50.74;97824.25;4907156;29;20784;-63
2022/08/15 09:20:23;;;;;;;2.33;1.90;;;;;;;23.89;49.54;97815.19;4907832;29;20234;-63
2022/08/15 09:22:51;;;;;;;4.13;1.93;;;;;;;23.86;50.14;97804.25;4900909;29;20284;-63
2022/08/15 09:25:18;;;;;;;5.17;1.97;;;;;;;23.99;50.39;97811.00;4906044;29;20708;-63
2022/08/15 09:27:51;;;;;;;3.20;2.07;;;;;;;24.05;50.00;97812.63;4921156;29;20229;-63
2022/08/15 09:30:19;;;;;;;4.23;2.00;;;;;;;23.82;50.05;97811.16;4905572;29;20282;-62
2022/08/15 09:33:13;;;;;;;3.40;1.80;;;;;;;23.80;50.10;97810.63;4907179;29;20243;-62
2022/08/15 09:35:52;;;;;;;3.43;1.90;;;;;;;23.95;48.74;97828.53;4937773;28;20244;-63
2022/08/15 09:38:43;;;;;;;2.27;1.80;;;;;;;23.98;49.48;97817.38;4889568;29;20244;-63
2022/08/15 09:41:47;;;;;;;4.40;1.83;;;;;;;24.13;49.47;97806.03;4889113;29;20366;-63
2022/08/15 09:44:37;;;;;;;3.33;2.03;;;;;;;24.13;49.80;97803.34;4905376;29;20854;-62
2022/08/15 09:47:39;;;;;;;2.50;1.77;;;;;;;24.09;49.51;97810.28;4910698;29;20335;-62
2022/08/15 09:50:32;;;;;;;3.57;1.90;;;;;;;24.22;49.37;97800.97;4908716;29;20231;-62
2022/08/15 09:53:08;;;;;;;3.50;2.13;;;;;;;24.40;49.03;97797.03;4909472;29;20228;-62
2022/08/15 09:55:44;;;;;;;3.13;2.07;;;;;;;24.52;48.55;97788.81;4910289;29;20248;-62
2022/08/15 09:58:17;;;;;;;3.97;2.10;;;;;;;24.49;47.84;97794.69;4909719;29;20239;-63
2022/08/15 10:00:58;;;;;;;4.23;2.47;;;;;;;24.47;48.07;97787.75;4915013;29;20261;-62
2022/08/15 10:03:54;;;;;;;4.87;2.37;;;;;;;24.55;49.07;97783.75;4911202;29;20227;-63
2022/08/15 10:06:24;;;;;;;2.33;1.80;;;;;;;24.75;47.55;97777.72;4909363;29;20332;-61
2022/08/15 10:09:16;;;;;;;2.50;2.10;;;;;;;24.74;47.28;97772.63;4909587;29;20292;-61
2022/08/15 10:12:06;;;;;;;2.43;1.90;;;;;;;24.61;45.41;97763.25;4908669;29;20312;-61
2022/08/15 10:14:42;;;;;;;2.83;2.00;;;;;;;24.52;46.04;97762.16;4909661;29;20607;-60
2022/08/15 10:17:37;;;;;;;3.57;2.20;;;;;;;24.67;46.01;97774.72;4909422;29;20232;-61
2022/08/15 10:20:38;;;;;;;2.13;1.83;;;;;;;24.66;45.95;97775.78;4910021;29;20234;-61
2022/08/15 10:23:13;;;;;;;3.27;1.97;;;;;;;24.67;45.19;97764.84;4905837;29;20759;-62
2022/08/15 10:25:42;;;;;;;2.67;1.83;;;;;;;24.68;45.42;97769.13;4910043;29;20283;-61
2022/08/15 10:28:22;;;;;;;2.70;1.80;;;;;;;24.88;44.90;97767.59;4910578;29;20231;-61
2022/08/15 10:31:21;;;;;;;4.10;2.00;;;;;;;24.87;45.38;97763.31;4908659;29;20237;-61
2022/08/15 10:33:52;;;;;;;4.10;2.07;;;;;;;24.92;44.51;97755.28;4897677;29;20221;-62
2022/08/15 10:36:26;;;;;;;3.60;2.00;;;;;;;25.05;43.65;97748.63;4883097;29;20272;-62
2022/08/15 10:39:12;;;;;;;3.67;2.10;;;;;;;25.06;43.43;97759.03;4896400;29;20231;-61
2022/08/15 10:41:53;;;;;;;3.10;1.90;;;;;;;25.04;43.34;97758.50;4906931;29;20229;-61
2022/08/15 10:44:32;;;;;;;3.63;1.80;;;;;;;25.35;43.05;97761.16;4903900;29;20247;-61
2022/08/15 10:47:10;;;;;;;2.90;1.80;;;;;;;25.57;43.43;97765.44;4898385;29;20240;-61
2022/08/15 10:49:53;;;;;;;2.55;2.00;;;;;;;25.63;42.11;97758.19;4906450;29;20986;-61
2022/08/15 10:52:39;;;;;;;3.47;2.10;;;;;;;25.76;41.55;97751.50;4907984;29;20266;-61
2022/08/15 10:55:24;;;;;;;3.13;1.80;;;;;;;25.46;42.03;97751.28;4901778;29;20281;-61
2022/08/15 10:57:56;;;;;;;2.03;1.70;;;;;;;25.55;42.46;97740.03;4923924;29;20284;-61
2022/08/15 11:00:42;;;;;;;6.17;1.90;;;;;;;25.90;41.88;97744.50;4905294;29;20328;-61
2022/08/15 11:03:18;;;;;;;2.13;1.80;;;;;;;25.58;42.64;97737.63;4907533;29;20336;-60
2022/08/15 11:05:55;;;;;;;3.73;2.53;;;;;;;25.71;42.45;97733.59;4909157;29;20224;-61
2022/08/15 11:08:23;;;;;;;3.00;2.50;;;;;;;25.71;42.03;97733.59;4908950;29;20602;-60
2022/08/15 11:10:51;;;;;;;4.23;2.73;;;;;;;25.80;41.23;97739.19;4922172;29;20471;-61
2022/08/15 11:13:23;;;;;;;4.70;2.50;;;;;;;25.80;42.36;97739.19;4908371;29;20237;-60
2022/08/15 11:15:54;;;;;;;4.30;2.50;;;;;;;26.31;40.69;97740.88;4908451;29;20595;-60
2022/08/15 11:18:27;;;;;;;4.43;2.57;;;;;;;26.44;40.16;97746.69;4908116;29;20237;-61
2022/08/15 11:20:56;;;;;;;3.83;2.90;;;;;;;26.41;40.38;97742.66;4910281;29;20321;-60
2022/08/15 11:23:36;;;;;;;4.93;2.60;;;;;;;26.45;40.76;97734.91;4907715;29;20311;-60
2022/08/15 11:26:06;;;;;;;3.00;2.60;;;;;;;26.74;40.03;97728.81;4908431;29;20921;-61
2022/08/15 11:28:33;;;;;;;3.00;2.37;;;;;;;26.90;40.08;97721.50;4906749;29;20588;-61
2022/08/15 11:31:03;;;;;;;4.80;2.47;;;;;;;26.74;39.30;97715.41;4909691;29;20238;-60
2022/08/15 11:33:40;;;;;;;4.53;2.47;;;;;;;26.92;40.37;97724.69;4909019;29;20246;-61
2022/08/15 11:36:11;;;;;;;3.53;2.33;;;;;;;26.92;39.20;97711.31;4910238;29;20694;-61
2022/08/15 11:38:43;;;;;;;4.90;2.50;;;;;;;26.63;39.91;97709.34;4907711;29;20233;-61
2022/08/15 11:41:19;;;;;;;4.18;2.50;;;;;;;27.05;39.22;97710.63;4909462;29;20232;-61
2022/08/15 11:43:46;;;;;;;4.63;3.10;;;;;;;27.11;39.11;97712.19;4910134;29;20375;-61
2022/08/15 11:46:13;;;;;;;3.15;2.63;;;;;;;27.04;39.31;97710.94;4904392;29;20226;-61
2022/08/15 11:48:47;;;;;;;4.30;2.80;;;;;;;27.22;38.90;97714.78;4904070;29;20305;-66
2022/08/15 11:51:24;;;;;;;3.63;3.00;;;;;;;27.11;39.99;97712.19;4906682;29;20270;-60
2022/08/15 11:54:07;;;;;;;4.13;2.70;;;;;;;27.35;39.19;97703.38;4910970;29;20226;-62
2022/08/15 11:56:51;;;;;;;6.60;2.90;;;;;;;27.17;38.90;97702.25;4898072;29;20282;-60
2022/08/15 11:59:22;;;;;;;5.00;2.93;;;;;;;27.51;38.52;97708.63;4905608;29;20893;-61
2022/08/15 12:02:12;;;;;;;6.07;3.00;;;;;;;27.81;38.77;97709.38;4905880;29;20231;-61
2022/08/15 12:04:42;;;;;;;7.43;3.00;;;;;;;27.60;38.93;97708.78;4906736;29;20230;-62
2022/08/15 12:07:16;;;;;;;4.67;3.00;;;;;;;27.90;38.10;97704.16;4908506;29;20250;-62